Time;durP1;ratioP1;P1;durP2;ratioP2;P2;SDS_P1;SDS_P2;PMS_P1;PMS_P2;Temp;Humidity;BMP_temperature;BMP_pressure;BME280_temperature;BME280_humidity;BME280_pressure;Samples;Min_cycle;Max_cycle;Signal;HPM_P1;HPM_P2
2022/10/14 00:00:16;;;;;;;3.8;3.1;;;;;;;12.83;96.99023;939.9504;;;;
2022/10/14 00:02:45;;;;;;;3.3;2.4;;;;;;;12.83;97.18555;940.012;;;;
2022/10/14 00:05:11;;;;;;;3.5;2.6;;;;;;;12.9;96.97168;939.926;;;;
2022/10/14 00:07:39;;;;;;;4.6;2.8;;;;;;;12.91;96.91602;939.9979;;;;
2022/10/14 00:10:05;;;;;;;4.6;2.9;;;;;;;12.95;96.54785;939.9684;;;;
2022/10/14 00:12:30;;;;;;;3.8;2.7;;;;;;;12.98;96.67969;939.9861;;;;
2022/10/14 00:14:55;;;;;;;4;2.8;;;;;;;12.92;96.7832;939.9603;;;;
2022/10/14 00:17:20;;;;;;;3.4;2.7;;;;;;;12.85;97.2373;939.9473;;;;
2022/10/14 00:19:50;;;;;;;6.5;3.6;;;;;;;12.75;98.07422;939.9675;;;;
2022/10/14 00:22:15;;;;;;;4.5;3.1;;;;;;;12.64;98.75098;939.9495;;;;
2022/10/14 00:24:44;;;;;;;4.4;2.9;;;;;;;12.79;98.75;939.918;;;;
2022/10/14 00:27:09;;;;;;;4.5;3.2;;;;;;;12.85;98.09863;939.9266;;;;
2022/10/14 00:29:36;;;;;;;4.8;3.2;;;;;;;12.81;98.15723;939.9189;;;;
2022/10/14 00:32:01;;;;;;;5.1;3.4;;;;;;;12.82;98.16992;939.9041;;;;
2022/10/14 00:34:31;;;;;;;5.3;3.4;;;;;;;12.82;98.34473;939.9561;;;;
2022/10/14 00:36:56;;;;;;;4.2;3.5;;;;;;;12.8;98.43066;939.9429;;;;
2022/10/14 00:39:23;;;;;;;5.1;3.2;;;;;;;12.78;98.73438;939.91;;;;
2022/10/14 00:41:49;;;;;;;5.5;3.3;;;;;;;12.79;98.58887;939.9053;;;;
2022/10/14 00:44:17;;;;;;;4;3.1;;;;;;;12.87;98.09082;939.9171;;;;
2022/10/14 00:46:42;;;;;;;4.1;3.1;;;;;;;12.91;97.59375;939.9275;;;;
2022/10/14 00:49:09;;;;;;;4.5;2.9;;;;;;;12.91;97.39844;939.9211;;;;
2022/10/14 00:51:34;;;;;;;4.4;3.3;;;;;;;12.9;97.17871;939.9698;;;;
2022/10/14 00:54:00;;;;;;;4.5;3.1;;;;;;;12.84;97.3252;939.7906;;;;
2022/10/14 00:56:25;;;;;;;3.8;3.4;;;;;;;12.81;97.60547;939.8862;;;;
2022/10/14 00:58:53;;;;;;;3.8;3.2;;;;;;;12.89;97.53418;939.9196;;;;
2022/10/14 01:01:18;;;;;;;3.5;3.1;;;;;;;12.94;97.25781;939.8853;;;;
2022/10/14 01:04:20;;;;;;;4;3.1;;;;;;;12.93;97.28809;939.8557;;;;
2022/10/14 01:06:45;;;;;;;4.1;2.8;;;;;;;12.96;97.26172;939.8717;;;;
2022/10/14 01:09:11;;;;;;;4;3.1;;;;;;;12.96;97.47754;939.9174;;;;
2022/10/14 01:11:36;;;;;;;4;2.8;;;;;;;12.98;97.59863;939.935;;;;
2022/10/14 01:14:01;;;;;;;4.7;3.3;;;;;;;12.99;97.15039;939.8422;;;;
2022/10/14 01:16:28;;;;;;;4.1;3;;;;;;;13.01;96.7207;939.9366;;;;
2022/10/14 01:18:58;;;;;;;5.5;3.2;;;;;;;12.99;96.69336;939.9342;;;;
2022/10/14 01:21:26;;;;;;;4.9;3.1;;;;;;;13.05;96.75391;939.9554;;;;
2022/10/14 01:23:52;;;;;;;3.5;2.7;;;;;;;13.04;97.07324;939.9322;;;;
2022/10/14 01:26:17;;;;;;;4.6;3;;;;;;;13.03;97.11523;939.973;;;;
2022/10/14 01:28:42;;;;;;;4.4;3.1;;;;;;;13.04;97.02539;939.9034;;;;
2022/10/14 01:31:09;;;;;;;5.2;3.2;;;;;;;13.06;96.97168;939.9586;;;;
2022/10/14 01:33:34;;;;;;;4.5;3.2;;;;;;;13.07;96.6084;939.9875;;;;
2022/10/14 01:35:59;;;;;;;4.1;3;;;;;;;13.05;96.70508;939.897;;;;
2022/10/14 01:38:24;;;;;;;3.4;2.8;;;;;;;12.93;96.9668;939.9716;;;;
2022/10/14 01:40:49;;;;;;;3.6;2.9;;;;;;;12.98;97.17383;939.9941;;;;
2022/10/14 01:43:14;;;;;;;5;2.4;;;;;;;12.98;97.49512;939.9341;;;;
2022/10/14 01:45:40;;;;;;;3.9;2;;;;;;;12.92;98.00879;939.9412;;;;
2022/10/14 01:48:05;;;;;;;2.9;2.2;;;;;;;12.84;98.3125;939.837;;;;
2022/10/14 01:50:33;;;;;;;3.3;2.4;;;;;;;12.8;98.4873;939.9037;;;;
2022/10/14 01:53:07;;;;;;;3;2.1;;;;;;;12.83;98.62012;939.8809;;;;
2022/10/14 01:55:32;;;;;;;3.9;2.8;;;;;;;12.72;98.10254;939.8642;;;;
2022/10/14 01:57:57;;;;;;;2.9;2.2;;;;;;;12.78;97.83887;939.8461;;;;
2022/10/14 02:00:22;;;;;;;3.1;2.4;;;;;;;12.81;97.9502;939.8446;;;;
2022/10/14 02:02:50;;;;;;;3.5;2.2;;;;;;;12.8;98.05176;939.8709;;;;
2022/10/14 02:05:15;;;;;;;3.2;2.3;;;;;;;12.68;98.39258;939.8921;;;;
2022/10/14 02:07:40;;;;;;;2.1;1.9;;;;;;;12.66;98.60645;939.8769;;;;
2022/10/14 02:10:06;;;;;;;2.3;2;;;;;;;12.74;98.7627;939.9027;;;;
2022/10/14 02:12:33;;;;;;;3.2;2;;;;;;;12.78;98.74805;939.9269;;;;
2022/10/14 02:14:59;;;;;;;2.7;2;;;;;;;12.73;98.73535;939.8203;;;;
2022/10/14 02:17:24;;;;;;;3.1;1.9;;;;;;;12.76;98.77832;939.8613;;;;
2022/10/14 02:19:49;;;;;;;3.3;2.1;;;;;;;12.84;98.47461;939.8427;;;;
2022/10/14 02:22:14;;;;;;;2.2;1.8;;;;;;;12.91;97.77734;939.8787;;;;
2022/10/14 02:24:39;;;;;;;2.5;2.1;;;;;;;12.89;97.6377;939.8564;;;;
2022/10/14 02:27:04;;;;;;;3.4;2;;;;;;;12.89;97.0293;939.8755;;;;
2022/10/14 02:29:33;;;;;;;4;2.1;;;;;;;12.72;97.6543;939.8403;;;;
2022/10/14 02:31:58;;;;;;;2.5;2.2;;;;;;;12.77;98.02246;939.8261;;;;
2022/10/14 02:34:25;;;;;;;3.2;2.4;;;;;;;12.77;97.9541;939.7941;;;;
2022/10/14 02:36:50;;;;;;;3.5;2.8;;;;;;;12.73;98.17285;939.7772;;;;
2022/10/14 02:39:17;;;;;;;3.3;2.2;;;;;;;12.8;98.05176;939.8813;;;;
2022/10/14 02:41:42;;;;;;;2.3;2.1;;;;;;;12.8;98.18945;939.8845;;;;
2022/10/14 02:44:10;;;;;;;2.7;2.3;;;;;;;12.82;98.0918;939.9592;;;;
2022/10/14 02:46:36;;;;;;;4.7;2.9;;;;;;;12.82;98.08984;940.028;;;;
2022/10/14 02:49:02;;;;;;;5.4;2.9;;;;;;;12.85;97.5127;939.9274;;;;
2022/10/14 02:51:27;;;;;;;3.3;2.5;;;;;;;12.87;96.91992;940.0417;;;;
2022/10/14 02:53:57;;;;;;;2.8;2.5;;;;;;;12.84;97.00586;940.0449;;;;
2022/10/14 02:56:21;;;;;;;3.1;2.8;;;;;;;12.83;97.23145;940.1207;;;;
2022/10/14 02:58:47;;;;;;;4.8;2.5;;;;;;;12.83;97.0127;940.0656;;;;
2022/10/14 03:01:12;;;;;;;3.1;2.7;;;;;;;12.83;97.02441;940.0847;;;;
2022/10/14 03:03:37;;;;;;;5;2.9;;;;;;;12.87;97.12695;940.0897;;;;
2022/10/14 03:06:07;;;;;;;3.6;2.7;;;;;;;12.89;97.53418;940.0849;;;;
2022/10/14 03:08:37;;;;;;;4;2.7;;;;;;;12.86;97.88184;940.0513;;;;
2022/10/14 03:11:02;;;;;;;3.6;2.7;;;;;;;12.85;98.13086;939.9961;;;;
2022/10/14 03:13:30;;;;;;;3.8;2.7;;;;;;;12.82;98.19531;940.1078;;;;
2022/10/14 03:16:02;;;;;;;4.8;2.7;;;;;;;12.85;98.27051;940.1072;;;;
2022/10/14 03:18:31;;;;;;;3.1;2.8;;;;;;;12.9;97.99316;940.1329;;;;
2022/10/14 03:20:56;;;;;;;3.5;3.1;;;;;;;12.84;98.05957;940.0887;;;;
2022/10/14 03:23:23;;;;;;;3.7;2.8;;;;;;;12.84;98.16504;940.1408;;;;
2022/10/14 03:25:48;;;;;;;2.9;2.6;;;;;;;12.87;97.91895;940.0737;;;;
2022/10/14 03:28:15;;;;;;;4;2.7;;;;;;;12.91;97.50195;940.0546;;;;
2022/10/14 03:30:40;;;;;;;7.8;4.2;;;;;;;12.92;97.24023;940.117;;;;
2022/10/14 03:33:07;;;;;;;7.8;3.5;;;;;;;12.94;97.25781;940.058;;;;
2022/10/14 03:36:15;;;;;;;5.9;3.3;;;;;;;12.96;96.77734;939.9813;;;;
2022/10/14 03:38:39;;;;;;;3.8;3;;;;;;;12.97;96.62012;940.0541;;;;
2022/10/14 03:41:08;;;;;;;5.8;3.5;;;;;;;12.92;96.94336;940.0483;;;;
2022/10/14 03:43:33;;;;;;;4;3.1;;;;;;;12.93;96.79395;940.0435;;;;
2022/10/14 03:46:00;;;;;;;3.9;2.7;;;;;;;12.94;96.71777;940.0444;;;;
2022/10/14 03:48:25;;;;;;;5.2;2.9;;;;;;;12.96;96.66211;940.0516;;;;
2022/10/14 03:50:51;;;;;;;4.6;3;;;;;;;13;96.70898;940.0253;;;;
2022/10/14 03:53:16;;;;;;;5.7;2.6;;;;;;;13.01;96.97266;940.0294;;;;
2022/10/14 03:55:45;;;;;;;2.5;2.3;;;;;;;12.97;97.06641;940.0069;;;;
2022/10/14 03:58:10;;;;;;;2.9;2.3;;;;;;;12.92;97.01074;940.0234;;;;
2022/10/14 04:02:37;;;;;;;4;2.9;;;;;;;12.86;97.77637;939.9378;;;;
2022/10/14 04:05:02;;;;;;;3.7;2.9;;;;;;;12.84;97.70605;939.8635;;;;
2022/10/14 04:07:28;;;;;;;3.5;3.1;;;;;;;12.83;97.88574;939.8178;;;;
2022/10/14 04:09:55;;;;;;;3.6;2.5;;;;;;;12.8;97.99414;939.8438;;;;
2022/10/14 04:12:20;;;;;;;17.4;15.9;;;;;;;12.83;97.89648;939.8098;;;;
2022/10/14 04:14:46;;;;;;;4.1;2.4;;;;;;;12.82;97.81641;939.7978;;;;
2022/10/14 04:17:11;;;;;;;3.1;2.4;;;;;;;12.85;97.85742;939.8155;;;;
2022/10/14 04:19:38;;;;;;;4.1;2.4;;;;;;;12.7;98.04102;939.7835;;;;
2022/10/14 04:22:03;;;;;;;4.2;2.4;;;;;;;12.52;99.12402;939.8113;;;;
2022/10/14 04:24:30;;;;;;;3.2;2.6;;;;;;;12.58;99.14941;939.8131;;;;
2022/10/14 04:26:54;;;;;;;4.6;2.6;;;;;;;12.56;99.15723;939.6222;;;;
2022/10/14 04:29:22;;;;;;;3.6;2.4;;;;;;;12.52;99.59375;939.7106;;;;
2022/10/14 04:31:48;;;;;;;4.2;3.4;;;;;;;12.43;99.73633;939.687;;;;
2022/10/14 04:34:13;;;;;;;3.5;2.6;;;;;;;12.45;99.97949;939.6824;;;;
2022/10/14 04:36:44;;;;;;;3.1;2.4;;;;;;;12.42;99.97266;939.6671;;;;
2022/10/14 04:39:14;;;;;;;5.9;2.6;;;;;;;12.31;100;939.62;;;;
2022/10/14 04:41:43;;;;;;;3.6;2.4;;;;;;;12.28;100;939.5847;;;;
2022/10/14 04:44:08;;;;;;;4.2;2.5;;;;;;;12.36;100;939.6217;;;;
2022/10/14 04:46:36;;;;;;;3.8;2.9;;;;;;;12.22;100;939.6003;;;;
2022/10/14 04:52:31;;;;;;;4.1;3.2;;;;;;;12.12;100;939.5708;;;;
2022/10/14 04:54:56;;;;;;;3.5;2.9;;;;;;;12.11;100;939.5436;;;;
2022/10/14 04:57:23;;;;;;;6.8;5.3;;;;;;;12.25;100;939.4911;;;;
2022/10/14 04:59:48;;;;;;;8.7;5.8;;;;;;;12.36;100;939.4484;;;;
2022/10/14 05:02:18;;;;;;;6.8;5.2;;;;;;;12.48;100;939.407;;;;
2022/10/14 05:04:49;;;;;;;5.6;4.1;;;;;;;12.51;99.57813;939.4014;;;;
2022/10/14 05:07:18;;;;;;;4.4;3.1;;;;;;;12.39;99.83789;939.3456;;;;
2022/10/14 05:09:43;;;;;;;3.7;2.5;;;;;;;12.3;100;939.2718;;;;
2022/10/14 05:12:13;;;;;;;4.3;3;;;;;;;12.14;100;939.2141;;;;
2022/10/14 05:14:43;;;;;;;6.2;3;;;;;;;11.99;100;939.2809;;;;
2022/10/14 05:17:08;;;;;;;3.7;3;;;;;;;12.11;100;939.1357;;;;
2022/10/14 05:19:38;;;;;;;8;5.7;;;;;;;12.18;100;939.1559;;;;
2022/10/14 05:22:03;;;;;;;7.4;5.5;;;;;;;12.04;100;939.1202;;;;
2022/10/14 05:24:32;;;;;;;6.3;4.5;;;;;;;12.06;100;939.1347;;;;
2022/10/14 05:26:57;;;;;;;5.2;3.5;;;;;;;12.13;100;939.0854;;;;
2022/10/14 05:29:30;;;;;;;5.9;3.8;;;;;;;12.14;100;939.0903;;;;
2022/10/14 05:31:53;;;;;;;3.9;3.4;;;;;;;12.07;100;939.0477;;;;
2022/10/14 05:34:21;;;;;;;6.3;3.4;;;;;;;12.1;100;939.1038;;;;
2022/10/14 05:36:55;;;;;;;4.6;3.7;;;;;;;12.03;100;939.0259;;;;
2022/10/14 05:39:19;;;;;;;4;3.5;;;;;;;11.94;100;939.0259;;;;
2022/10/14 05:41:48;;;;;;;4.8;3.5;;;;;;;12.02;100;938.9844;;;;
2022/10/14 05:44:13;;;;;;;4;3.6;;;;;;;11.99;100;938.9617;;;;
2022/10/14 05:46:42;;;;;;;4.8;3.3;;;;;;;11.87;100;939.0288;;;;
2022/10/14 05:49:13;;;;;;;3.6;2.9;;;;;;;11.7;100;939.0009;;;;
2022/10/14 05:51:40;;;;;;;4.2;3;;;;;;;11.75;100;938.9677;;;;
2022/10/14 05:54:05;;;;;;;2.8;2.5;;;;;;;11.6;100;938.9681;;;;
2022/10/14 05:56:36;;;;;;;3.3;2.6;;;;;;;11.6;100;938.9059;;;;
2022/10/14 05:59:04;;;;;;;4.2;2.9;;;;;;;11.67;100;938.8387;;;;
2022/10/14 06:01:30;;;;;;;4.7;3.1;;;;;;;11.71;100;938.8279;;;;
2022/10/14 06:03:56;;;;;;;4.2;3.2;;;;;;;11.8;100;938.9252;;;;
2022/10/14 06:06:22;;;;;;;3.5;3.1;;;;;;;11.78;100;938.9503;;;;
2022/10/14 06:08:48;;;;;;;4.4;2.9;;;;;;;11.85;100;938.9576;;;;
2022/10/14 06:11:13;;;;;;;3.2;2.9;;;;;;;11.92;100;938.9118;;;;
2022/10/14 06:13:40;;;;;;;3.5;3.2;;;;;;;12.05;100;938.8895;;;;
2022/10/14 06:16:05;;;;;;;3.7;3.4;;;;;;;11.86;100;938.9091;;;;
2022/10/14 06:18:32;;;;;;;5.9;3.7;;;;;;;11.88;100;938.9371;;;;
2022/10/14 06:20:58;;;;;;;4.8;3.7;;;;;;;11.79;100;938.8828;;;;
2022/10/14 06:23:24;;;;;;;4.5;3.3;;;;;;;11.85;100;938.8364;;;;
2022/10/14 06:25:50;;;;;;;5.4;3.2;;;;;;;11.93;100;938.9055;;;;
2022/10/14 06:28:15;;;;;;;4.8;3.2;;;;;;;11.99;100;938.9113;;;;
2022/10/14 06:30:42;;;;;;;4.1;2.9;;;;;;;11.94;100;938.8528;;;;
2022/10/14 06:33:07;;;;;;;3.2;2.7;;;;;;;11.94;100;938.8975;;;;
2022/10/14 06:35:36;;;;;;;3.4;2.7;;;;;;;11.79;100;938.8558;;;;
2022/10/14 06:38:07;;;;;;;3.8;2.5;;;;;;;11.85;100;938.8524;;;;
2022/10/14 06:40:31;;;;;;;2.4;2.2;;;;;;;11.73;100;938.8575;;;;
2022/10/14 06:42:57;;;;;;;2.2;2;;;;;;;11.96;100;938.8585;;;;
2022/10/14 06:45:23;;;;;;;2.9;2.1;;;;;;;11.96;100;938.8338;;;;
2022/10/14 06:47:54;;;;;;;2.5;1.9;;;;;;;12.02;100;938.84;;;;
2022/10/14 06:50:23;;;;;;;2.3;1.7;;;;;;;11.91;100;938.8343;;;;
2022/10/14 06:52:52;;;;;;;2.4;2;;;;;;;11.9;100;938.7944;;;;
2022/10/14 06:55:17;;;;;;;3.5;2.2;;;;;;;12.05;100;938.8329;;;;
2022/10/14 06:57:45;;;;;;;2.5;2;;;;;;;12.22;99.5127;938.8036;;;;
2022/10/14 07:00:10;;;;;;;4.1;2;;;;;;;12.48;98.94336;938.7648;;;;
2022/10/14 07:02:36;;;;;;;2.7;2.2;;;;;;;12.5;97.44531;938.8264;;;;
2022/10/14 07:05:01;;;;;;;2.5;2.1;;;;;;;12.5;97.12207;938.8128;;;;
2022/10/14 07:07:28;;;;;;;3.1;1.8;;;;;;;12.63;96.41797;938.8166;;;;
2022/10/14 07:09:54;;;;;;;3.8;2.1;;;;;;;12.81;94.94336;938.8106;;;;
2022/10/14 07:12:20;;;;;;;2.3;1.8;;;;;;;12.87;94.77344;938.8181;;;;
2022/10/14 07:14:45;;;;;;;1.9;1.7;;;;;;;12.91;93.73633;938.7279;;;;
2022/10/14 07:17:15;;;;;;;2.2;1.3;;;;;;;12.63;93.6875;938.795;;;;
2022/10/14 07:19:44;;;;;;;2;1.4;;;;;;;12.71;95.19531;938.7673;;;;
2022/10/14 07:22:09;;;;;;;1.6;1.5;;;;;;;12.93;94.55762;938.7615;;;;
2022/10/14 07:24:35;;;;;;;1.9;1.4;;;;;;;13.17;92.96777;938.7459;;;;
2022/10/14 07:27:00;;;;;;;1.7;1.5;;;;;;;13.38;92.05859;938.6473;;;;
2022/10/14 07:29:27;;;;;;;1.8;1.4;;;;;;;13.54;91.2168;938.6578;;;;
2022/10/14 07:31:52;;;;;;;1.5;1.4;;;;;;;13.66;91.1748;938.6467;;;;
2022/10/14 07:34:20;;;;;;;2;1.6;;;;;;;13.56;90.54395;938.6097;;;;
2022/10/14 07:36:45;;;;;;;2.4;1.6;;;;;;;13.71;89.59668;938.6442;;;;
2022/10/14 07:39:11;;;;;;;2.8;1.4;;;;;;;13.77;89.78027;938.6849;;;;
2022/10/14 07:41:36;;;;;;;2.9;1.5;;;;;;;13.76;90.08887;938.7065;;;;
2022/10/14 07:44:04;;;;;;;2.7;1.1;;;;;;;13.82;89.23926;938.6898;;;;
2022/10/14 07:46:31;;;;;;;2.3;1.6;;;;;;;13.75;89.33984;938.7081;;;;
2022/10/14 07:48:52;;;;;;;2.2;1.5;;;;;;;13.97;89.89258;938.7472;;;;
2022/10/14 07:51:19;;;;;;;1.6;1.5;;;;;;;14.19;88.95605;938.7587;;;;
2022/10/14 07:53:44;;;;;;;1.7;1.6;;;;;;;14.31;89.85742;938.7169;;;;
2022/10/14 07:56:10;;;;;;;2.8;1.6;;;;;;;14.53;89.18945;938.7244;;;;
2022/10/14 07:58:35;;;;;;;2.4;1.4;;;;;;;14.44;86.52148;938.6936;;;;
2022/10/14 08:01:04;;;;;;;2.8;1.4;;;;;;;14.37;87.11523;938.7478;;;;
2022/10/14 08:03:34;;;;;;;2.1;1.9;;;;;;;14.53;87.10352;938.7349;;;;
2022/10/14 08:05:59;;;;;;;2.5;1.4;;;;;;;14.71;86.4707;938.7798;;;;
2022/10/14 08:08:27;;;;;;;1.8;1.3;;;;;;;15.11;85.97266;938.7739;;;;
2022/10/14 08:10:52;;;;;;;1.2;1.1;;;;;;;15.79;81.95703;938.7244;;;;
2022/10/14 08:13:18;;;;;;;1.2;1;;;;;;;16.42;77.06445;938.6933;;;;
2022/10/14 08:15:52;;;;;;;1;1;;;;;;;16.58;76.30566;938.5886;;;;
2022/10/14 08:18:19;;;;;;;2.2;1;;;;;;;16.9;75.24902;938.6373;;;;
2022/10/14 08:20:44;;;;;;;3.6;1.2;;;;;;;17.42;74.62988;938.6473;;;;
2022/10/14 08:23:12;;;;;;;1.3;1.2;;;;;;;18.11;72.80762;938.6225;;;;
2022/10/14 08:25:36;;;;;;;2.3;0.8;;;;;;;18.82;67.08398;938.5217;;;;
2022/10/14 08:28:06;;;;;;;0.9;0.9;;;;;;;19.44;66.23438;938.4937;;;;
2022/10/14 08:30:35;;;;;;;1.6;1;;;;;;;20.29;61.74902;938.4764;;;;
2022/10/14 08:33:00;;;;;;;2;0.8;;;;;;;20.3;59.45117;938.5342;;;;
2022/10/14 08:35:30;;;;;;;0.9;0.7;;;;;;;21.26;55.53223;938.4888;;;;
2022/10/14 08:38:09;;;;;;;1.7;0.8;;;;;;;22.71;53.50586;938.5535;;;;
2022/10/14 08:40:37;;;;;;;1;0.8;;;;;;;21.92;50.5166;938.4842;;;;
2022/10/14 08:43:04;;;;;;;0.5;0.5;;;;;;;22.19;52.70508;938.4593;;;;
2022/10/14 08:45:31;;;;;;;0.8;0.6;;;;;;;23.26;50.0459;938.4314;;;;
2022/10/14 08:48:03;;;;;;;1.5;0.8;;;;;;;21.56;51.77539;938.4373;;;;
2022/10/14 08:50:34;;;;;;;0.9;0.7;;;;;;;19.95;57.11816;938.4364;;;;
2022/10/14 08:53:00;;;;;;;0.6;0.6;;;;;;;19.85;57.83984;938.46;;;;
2022/10/14 08:55:49;;;;;;;1.1;0.8;;;;;;;19.81;60.76074;938.4359;;;;
2022/10/14 08:58:15;;;;;;;0.7;0.7;;;;;;;20.67;57.46777;938.4042;;;;
2022/10/14 09:00:40;;;;;;;0.8;0.6;;;;;;;20.91;55.78027;938.3042;;;;
2022/10/14 09:03:11;;;;;;;1.2;0.6;;;;;;;21.35;54.25586;938.3359;;;;
2022/10/14 09:05:39;;;;;;;0.6;0.6;;;;;;;21.45;52.44141;938.3063;;;;
2022/10/14 09:08:04;;;;;;;1.1;0.8;;;;;;;20.15;57.58691;938.3328;;;;
2022/10/14 09:10:29;;;;;;;1;0.6;;;;;;;19.19;60.40918;938.3699;;;;
2022/10/14 09:12:58;;;;;;;0.5;0.5;;;;;;;19;60.9873;938.3184;;;;
2022/10/14 09:15:23;;;;;;;0.6;0.6;;;;;;;18.72;62.57715;938.2413;;;;
2022/10/14 09:17:51;;;;;;;0.6;0.6;;;;;;;18.81;63.08008;938.2618;;;;
2022/10/14 09:20:16;;;;;;;1.7;0.7;;;;;;;19.35;62.24707;938.238;;;;
2022/10/14 09:22:42;;;;;;;2.8;0.9;;;;;;;19.65;62.70996;938.2184;;;;
2022/10/14 09:25:11;;;;;;;2.3;0.9;;;;;;;20.29;60.8623;938.2078;;;;
2022/10/14 09:27:36;;;;;;;0.8;0.8;;;;;;;20.49;60.16602;938.1567;;;;
2022/10/14 09:30:02;;;;;;;0.5;0.5;;;;;;;20.07;57.38965;938.1838;;;;
2022/10/14 09:32:27;;;;;;;0.7;0.6;;;;;;;19.54;58.97656;938.1667;;;;
2022/10/14 09:34:52;;;;;;;1.2;0.7;;;;;;;19.55;58.68652;938.1309;;;;
2022/10/14 09:37:17;;;;;;;0.6;0.6;;;;;;;19.23;58.22363;938.0561;;;;
2022/10/14 09:39:45;;;;;;;0.8;0.7;;;;;;;19.23;61.15918;938.0754;;;;
2022/10/14 09:42:10;;;;;;;0.7;0.7;;;;;;;19.01;61.05957;938.1139;;;;
2022/10/14 09:44:35;;;;;;;0.9;0.9;;;;;;;18.9;60.53223;938.0583;;;;
2022/10/14 09:47:04;;;;;;;1;1;;;;;;;18.7;61.13281;938.0239;;;;
2022/10/14 09:49:34;;;;;;;1.1;0.8;;;;;;;18.88;62.08887;938.0483;;;;
2022/10/14 09:52:00;;;;;;;0.9;0.7;;;;;;;19.2;61.10742;937.9379;;;;
2022/10/14 09:54:24;;;;;;;1;0.7;;;;;;;19.9;61.25195;937.9691;;;;
2022/10/14 09:56:49;;;;;;;0.9;0.8;;;;;;;20.05;59.60449;937.9813;;;;
2022/10/14 09:59:14;;;;;;;3.5;0.9;;;;;;;19.9;61.07813;938.0183;;;;
2022/10/14 10:01:43;;;;;;;0.5;0.5;;;;;;;19.41;59.96191;937.9554;;;;
2022/10/14 10:04:11;;;;;;;0.8;0.7;;;;;;;19.03;62.14453;938.0153;;;;
2022/10/14 10:06:36;;;;;;;1.1;0.6;;;;;;;18.28;62.73633;938.0706;;;;
2022/10/14 10:09:02;;;;;;;1.6;0.6;;;;;;;17.73;66.03711;938.0417;;;;
2022/10/14 10:11:28;;;;;;;0.9;0.8;;;;;;;17.55;66.14746;938.0388;;;;
2022/10/14 10:13:53;;;;;;;1.1;0.8;;;;;;;17.61;68.06055;938.0063;;;;
2022/10/14 10:16:18;;;;;;;0.9;0.7;;;;;;;17.75;67.39648;938.0262;;;;
2022/10/14 10:18:46;;;;;;;2.6;0.8;;;;;;;17.97;65.13086;938.0295;;;;
2022/10/14 10:21:11;;;;;;;1;0.8;;;;;;;18.03;65.70801;937.9778;;;;
2022/10/14 10:23:37;;;;;;;1.3;0.7;;;;;;;18.39;66.77344;937.916;;;;
2022/10/14 10:26:02;;;;;;;0.8;0.8;;;;;;;18.77;63.6416;937.8594;;;;
2022/10/14 10:28:30;;;;;;;0.7;0.7;;;;;;;18.91;60.60156;937.8541;;;;
2022/10/14 10:30:55;;;;;;;0.6;0.6;;;;;;;18.48;58.76465;937.7943;;;;
2022/10/14 10:33:20;;;;;;;0.5;0.5;;;;;;;19.15;60.7998;937.7532;;;;
2022/10/14 10:35:46;;;;;;;1.5;0.8;;;;;;;19.48;60.16699;937.6973;;;;
2022/10/14 10:38:11;;;;;;;1.3;0.7;;;;;;;19.82;58.02148;937.6599;;;;
2022/10/14 10:40:50;;;;;;;1.1;0.6;;;;;;;20.2;61.65527;937.6401;;;;
2022/10/14 10:43:18;;;;;;;0.6;0.6;;;;;;;20.62;55.1123;937.538;;;;
2022/10/14 10:45:41;;;;;;;0.7;0.7;;;;;;;20.45;53.03418;937.4978;;;;
2022/10/14 10:48:08;;;;;;;0.9;0.7;;;;;;;19.72;54.21973;937.5339;;;;
2022/10/14 10:50:34;;;;;;;0.7;0.6;;;;;;;19.9;55.53711;937.4752;;;;
2022/10/14 10:53:03;;;;;;;1.6;0.5;;;;;;;19.82;53.54297;937.4311;;;;
2022/10/14 10:55:30;;;;;;;0.7;0.7;;;;;;;19.9;55.99121;937.4623;;;;
2022/10/14 10:57:57;;;;;;;0.5;0.5;;;;;;;19.83;56.2041;937.3922;;;;
2022/10/14 11:00:28;;;;;;;1;0.8;;;;;;;20.01;55.10645;937.4132;;;;
2022/10/14 11:02:55;;;;;;;0.6;0.6;;;;;;;20.21;54.74707;937.2758;;;;
2022/10/14 11:05:24;;;;;;;0.9;0.8;;;;;;;20.29;52.8291;937.2891;;;;
2022/10/14 11:12:43;;;;;;;2.2;0.8;;;;;;;19.88;57.80859;937.2584;;;;
2022/10/14 11:15:11;;;;;;;1.8;0.8;;;;;;;19.89;55.91992;937.2169;;;;
2022/10/14 11:28:10;;;;;;;0.4;0.4;;;;;;;19.87;54.82129;937.2141;;;;
2022/10/14 11:30:36;;;;;;;1;0.4;;;;;;;19.92;54.53516;937.2202;;;;
2022/10/14 11:33:01;;;;;;;0.7;0.5;;;;;;;19.93;56.2168;937.1874;;;;
2022/10/14 11:35:26;;;;;;;0.7;0.5;;;;;;;19.78;57.41016;937.1801;;;;
2022/10/14 11:37:53;;;;;;;0.8;0.7;;;;;;;19.5;61.19629;937.1096;;;;
2022/10/14 11:40:20;;;;;;;1;0.7;;;;;;;19.3;62.66016;937.1628;;;;
2022/10/14 11:42:51;;;;;;;0.9;0.7;;;;;;;19.18;64.30859;937.1011;;;;
2022/10/14 11:45:20;;;;;;;1.5;1;;;;;;;19.43;64.51953;937.1113;;;;
2022/10/14 11:47:48;;;;;;;1.4;0.9;;;;;;;19.43;64.62402;937.0783;;;;
2022/10/14 11:50:18;;;;;;;1;0.6;;;;;;;19.42;65.43848;937.0623;;;;
2022/10/14 11:52:50;;;;;;;0.7;0.7;;;;;;;19.08;62.45508;937.0285;;;;
2022/10/14 11:55:23;;;;;;;0.7;0.6;;;;;;;19.08;62.33691;936.9908;;;;
2022/10/14 11:57:49;;;;;;;1.2;0.7;;;;;;;19.02;62.80664;936.9429;;;;
2022/10/14 12:02:50;;;;;;;1.4;1.3;;;;;;;19.13;62.10059;936.8086;;;;
2022/10/14 12:05:21;;;;;;;0.8;0.8;;;;;;;19.34;63.0498;936.8785;;;;
2022/10/14 12:07:48;;;;;;;1.3;1.1;;;;;;;19.45;64.41699;936.8507;;;;
2022/10/14 12:10:17;;;;;;;1.6;1;;;;;;;19.41;66.18164;936.8161;;;;
2022/10/14 12:12:45;;;;;;;0.9;0.8;;;;;;;19.37;66.1543;936.7622;;;;
2022/10/14 12:15:11;;;;;;;7.1;3.6;;;;;;;19.18;66.00879;936.7943;;;;
2022/10/14 12:17:37;;;;;;;4.8;3;;;;;;;19.05;64.10156;936.8253;;;;
2022/10/14 12:20:02;;;;;;;2.2;1.5;;;;;;;19.06;65.39746;936.8184;;;;
2022/10/14 12:22:28;;;;;;;4.1;2.4;;;;;;;19.04;67.30273;936.7698;;;;
2022/10/14 12:24:53;;;;;;;1.4;1.1;;;;;;;18.92;65.44531;936.7943;;;;
2022/10/14 12:27:18;;;;;;;1.1;1;;;;;;;18.83;65.89941;936.7262;;;;
2022/10/14 12:29:48;;;;;;;1.7;0.7;;;;;;;18.89;65.56934;936.7653;;;;
2022/10/14 12:32:13;;;;;;;1.1;0.8;;;;;;;18.9;64.57031;936.7414;;;;
2022/10/14 12:34:38;;;;;;;1.4;0.8;;;;;;;19;63.88574;936.7019;;;;
2022/10/14 12:37:03;;;;;;;0.8;0.8;;;;;;;19.02;66.08984;936.7686;;;;
2022/10/14 12:39:28;;;;;;;1.5;0.8;;;;;;;18.99;65.51367;936.7191;;;;
2022/10/14 12:41:54;;;;;;;2.1;0.6;;;;;;;19.05;65.23242;936.705;;;;
2022/10/14 12:44:20;;;;;;;1;0.6;;;;;;;19.21;63.76563;936.6548;;;;
2022/10/14 12:46:45;;;;;;;0.8;0.8;;;;;;;19.22;63.1377;936.711;;;;
2022/10/14 12:49:11;;;;;;;1.4;0.9;;;;;;;19.24;62.67578;936.7333;;;;
2022/10/14 12:51:36;;;;;;;0.8;0.8;;;;;;;19.46;61.98242;936.7528;;;;
2022/10/14 12:54:06;;;;;;;0.7;0.7;;;;;;;19.41;61.44043;936.7902;;;;
2022/10/14 12:56:33;;;;;;;1.7;0.8;;;;;;;19.32;64.39844;936.7911;;;;
2022/10/14 12:59:02;;;;;;;1.3;0.8;;;;;;;18.92;65.35156;936.8887;;;;
2022/10/14 13:04:01;;;;;;;1.8;0.7;;;;;;;19;63.00195;936.9044;;;;
2022/10/14 13:06:30;;;;;;;0.8;0.8;;;;;;;19.07;61.55566;936.8642;;;;
2022/10/14 13:09:01;;;;;;;0.7;0.7;;;;;;;18.84;65.93457;936.8947;;;;
2022/10/14 13:11:27;;;;;;;1;0.7;;;;;;;18.66;66.18652;936.8093;;;;
2022/10/14 13:13:54;;;;;;;1.3;0.8;;;;;;;18.7;68.04297;936.7751;;;;
2022/10/14 13:16:25;;;;;;;1.1;1;;;;;;;18.47;68.32129;936.747;;;;
2022/10/14 13:18:52;;;;;;;1.6;0.9;;;;;;;18.66;68.49023;936.7148;;;;
2022/10/14 13:21:18;;;;;;;1.5;0.8;;;;;;;18.72;67.81152;936.6271;;;;
2022/10/14 13:23:43;;;;;;;0.7;0.7;;;;;;;18.47;70.49707;936.6017;;;;
2022/10/14 13:26:08;;;;;;;1.5;0.8;;;;;;;18.58;70.07031;936.6549;;;;
2022/10/14 13:28:35;;;;;;;1.5;0.9;;;;;;;18.68;68.93457;936.6281;;;;
2022/10/14 13:31:00;;;;;;;1.5;0.9;;;;;;;18.45;70.44434;936.55;;;;
2022/10/14 13:33:25;;;;;;;1.8;1;;;;;;;18.39;71.5752;936.6309;;;;
2022/10/14 13:35:52;;;;;;;2.2;0.7;;;;;;;18.54;72.1582;936.5856;;;;
2022/10/14 13:38:17;;;;;;;1.5;0.7;;;;;;;18.63;66.86914;936.6462;;;;
2022/10/14 13:40:42;;;;;;;1.2;0.9;;;;;;;18.64;69.08008;936.7161;;;;
2022/10/14 13:43:07;;;;;;;0.7;0.7;;;;;;;18.76;67.85352;936.6962;;;;
2022/10/14 13:45:33;;;;;;;2.3;0.7;;;;;;;18.45;71.24805;936.7386;;;;
2022/10/14 13:47:58;;;;;;;1.8;0.9;;;;;;;18.56;68.10254;936.7803;;;;
2022/10/14 13:50:28;;;;;;;1.1;0.7;;;;;;;18.42;71.19531;936.7424;;;;
2022/10/14 13:52:53;;;;;;;1.3;0.9;;;;;;;18.44;71.97949;936.7122;;;;
2022/10/14 13:58:36;;;;;;;2.5;1.2;;;;;;;18.16;72.48926;936.7156;;;;
2022/10/14 14:01:41;;;;;;;3.2;1;;;;;;;18.24;71.58594;936.6422;;;;
2022/10/14 14:04:06;;;;;;;1;0.9;;;;;;;18.41;68.42773;936.6498;;;;
2022/10/14 14:06:33;;;;;;;1.5;0.9;;;;;;;18.36;68.20996;936.5984;;;;
2022/10/14 14:09:01;;;;;;;2.4;1.2;;;;;;;18.29;71.09375;936.7048;;;;
2022/10/14 14:11:26;;;;;;;1.8;1.2;;;;;;;18.19;72.58984;936.6931;;;;
2022/10/14 14:13:55;;;;;;;1.5;1.4;;;;;;;18.07;73.61426;936.6611;;;;
2022/10/14 14:16:21;;;;;;;1.3;1.1;;;;;;;17.87;74.35938;936.5676;;;;
2022/10/14 14:18:51;;;;;;;1.7;1.2;;;;;;;17.78;74.14648;936.4387;;;;
2022/10/14 14:21:16;;;;;;;1.9;1.4;;;;;;;17.87;75.35742;936.4952;;;;
2022/10/14 14:23:42;;;;;;;1.4;1.3;;;;;;;17.86;75.75098;936.4526;;;;
2022/10/14 14:26:08;;;;;;;1.7;1.3;;;;;;;17.96;76.11523;936.437;;;;
2022/10/14 14:28:34;;;;;;;2.5;1.4;;;;;;;18.03;76.56934;936.4123;;;;
2022/10/14 14:31:24;;;;;;;2.2;1.7;;;;;;;18.08;77.13574;936.3708;;;;
2022/10/14 14:33:49;;;;;;;2.3;1.6;;;;;;;18.05;77.16602;936.4875;;;;
2022/10/14 14:36:20;;;;;;;2.1;1.6;;;;;;;18.03;76.97754;936.4621;;;;
2022/10/14 14:38:51;;;;;;;3.6;1.5;;;;;;;17.96;76.78906;936.4183;;;;
2022/10/14 14:41:16;;;;;;;3;1.7;;;;;;;17.96;76.12695;936.3974;;;;
2022/10/14 14:43:46;;;;;;;2.3;1.5;;;;;;;17.97;76.89648;936.2795;;;;
2022/10/14 14:46:14;;;;;;;1.6;1.5;;;;;;;17.91;76.01465;936.3284;;;;
2022/10/14 14:48:39;;;;;;;2.1;1.5;;;;;;;17.87;76.50586;936.364;;;;
2022/10/14 14:51:04;;;;;;;1.7;1.3;;;;;;;17.8;75.98438;936.2902;;;;
2022/10/14 14:53:34;;;;;;;1.8;1.4;;;;;;;17.84;77.28027;936.3347;;;;
2022/10/14 14:56:00;;;;;;;2.3;1.3;;;;;;;17.84;76.71191;936.2734;;;;
2022/10/14 14:58:25;;;;;;;1.4;1.3;;;;;;;17.82;76.37012;936.3102;;;;
2022/10/14 15:00:55;;;;;;;2.1;1;;;;;;;17.82;74.60547;936.2994;;;;
2022/10/14 15:03:19;;;;;;;4.2;2;;;;;;;17.78;75.9209;936.2698;;;;